createdAt,value
2022-08-18T00:01:06.047Z,13.30
2022-08-18T00:03:57.286Z,12.77
2022-08-18T00:06:20.798Z,14.20
2022-08-18T00:08:47.910Z,11.30
2022-08-18T00:11:15.719Z,11.55
2022-08-18T00:13:42.627Z,12.35
2022-08-18T00:16:09.494Z,12.35
2022-08-18T00:18:36.354Z,12.20
2022-08-18T00:21:03.262Z,11.20
2022-08-18T00:23:32.649Z,12.38
2022-08-18T00:26:00.356Z,10.77
2022-08-18T00:28:27.300Z,12.88
2022-08-18T00:30:54.465Z,11.27
2022-08-18T00:33:22.141Z,11.18
2022-08-18T00:35:49.039Z,10.95
2022-08-18T00:38:24.819Z,10.75
2022-08-18T00:40:54.410Z,9.77
2022-08-18T00:43:32.528Z,10.77
2022-08-18T00:45:59.472Z,9.60
2022-08-18T00:48:30.229Z,11.02
2022-08-18T00:51:00.554Z,10.50
2022-08-18T00:53:50.708Z,10.80
2022-08-18T00:56:28.414Z,9.70
2022-08-18T00:59:04.589Z,9.55
2022-08-18T01:01:34.387Z,10.27
2022-08-18T01:04:09.800Z,10.85
2022-08-18T01:06:46.874Z,11.63
2022-08-18T01:09:13.997Z,9.80
2022-08-18T01:11:41.446Z,9.95
2022-08-18T01:14:09.539Z,12.15
2022-08-18T01:16:57.626Z,11.50
2022-08-18T01:19:44.755Z,10.13
2022-08-18T01:22:22.588Z,10.23
2022-08-18T01:25:09.734Z,9.77
2022-08-18T01:27:36.987Z,9.95
2022-08-18T01:30:10.198Z,10.20
2022-08-18T01:32:39.119Z,10.10
2022-08-18T01:35:09.537Z,10.13
2022-08-18T01:37:37.637Z,9.63
2022-08-18T01:41:17.227Z,9.50
2022-08-18T01:42:56.501Z,9.85
2022-08-18T01:45:23.677Z,9.90
2022-08-18T01:47:50.804Z,10.00
2022-08-18T01:50:18.233Z,11.60
2022-08-18T01:52:45.418Z,12.32
2022-08-18T01:55:14.650Z,11.00
2022-08-18T01:57:44.927Z,10.88
2022-08-18T02:00:14.463Z,10.00
2022-08-18T02:02:42.814Z,10.50
2022-08-18T02:05:16.610Z,10.02
2022-08-18T02:07:44.488Z,10.85
2022-08-18T02:10:12.348Z,10.02
2022-08-18T02:12:40.855Z,9.68
2022-08-18T02:15:08.749Z,10.75
2022-08-18T02:17:43.915Z,9.38
2022-08-18T02:20:13.713Z,8.90
2022-08-18T02:22:41.169Z,9.95
2022-08-18T02:25:08.790Z,10.20
2022-08-18T02:27:35.828Z,8.75
2022-08-18T02:30:06.715Z,9.38
2022-08-18T02:32:33.858Z,11.60
2022-08-18T02:35:01.414Z,10.13
2022-08-18T02:37:28.313Z,8.73
2022-08-18T02:39:55.362Z,9.13
2022-08-18T02:42:22.247Z,8.25
2022-08-18T02:44:49.268Z,9.68
2022-08-18T02:47:20.378Z,11.65
2022-08-18T02:49:47.861Z,8.93
2022-08-18T02:52:14.856Z,8.77
2022-08-18T02:54:41.677Z,10.13
2022-08-18T02:57:10.803Z,10.05
2022-08-18T02:59:39.527Z,9.00
2022-08-18T03:02:09.498Z,8.00
2022-08-18T03:04:36.627Z,8.25
2022-08-18T03:07:06.061Z,8.43
2022-08-18T03:09:34.589Z,8.10
2022-08-18T03:12:02.120Z,8.48
2022-08-18T03:14:29.686Z,10.65
2022-08-18T03:16:57.146Z,8.90
2022-08-18T03:19:29.116Z,10.05
2022-08-18T03:21:59.366Z,9.05
2022-08-18T03:24:30.388Z,7.78
2022-08-18T03:26:57.338Z,7.05
2022-08-18T03:29:30.965Z,8.18
2022-08-18T03:32:00.151Z,7.20
2022-08-18T03:34:26.960Z,7.72
2022-08-18T03:36:53.845Z,7.13
2022-08-18T03:39:23.670Z,8.10
2022-08-18T03:41:59.627Z,8.55
2022-08-18T03:44:33.863Z,7.60
2022-08-18T03:47:04.779Z,8.90
2022-08-18T03:49:33.739Z,9.88
2022-08-18T03:52:01.507Z,10.73
2022-08-18T03:54:31.969Z,10.95
2022-08-18T03:57:00.179Z,10.60
2022-08-18T03:59:28.190Z,10.75
2022-08-18T04:01:55.516Z,9.85
2022-08-18T04:04:25.545Z,10.05
2022-08-18T04:06:58.743Z,9.40
2022-08-18T04:09:27.982Z,9.10
2022-08-18T04:11:55.986Z,8.30
2022-08-18T04:14:25.200Z,11.13
2022-08-18T04:16:52.611Z,8.20
2022-08-18T04:19:22.626Z,7.75
2022-08-18T04:21:55.471Z,7.55
2022-08-18T04:24:22.336Z,7.72
2022-08-18T04:26:50.308Z,8.05
2022-08-18T04:29:21.144Z,8.45
2022-08-18T04:31:49.041Z,6.70
2022-08-18T04:34:16.241Z,6.78
2022-08-18T04:36:43.679Z,6.40
2022-08-18T04:39:11.988Z,8.18
2022-08-18T04:41:41.056Z,9.73
2022-08-18T04:44:09.887Z,9.55
2022-08-18T04:46:42.408Z,10.07
2022-08-18T04:49:10.815Z,8.35
2022-08-18T04:52:32.006Z,8.80
2022-08-18T04:54:29.471Z,9.10
2022-08-18T04:56:56.375Z,8.73
2022-08-18T04:59:23.204Z,8.63
2022-08-18T05:01:49.994Z,7.93
2022-08-18T05:04:17.692Z,8.13
2022-08-18T05:06:45.822Z,8.57
2022-08-18T05:09:16.682Z,8.20
2022-08-18T05:11:50.390Z,8.70
2022-08-18T05:14:17.709Z,7.38
2022-08-18T05:16:48.594Z,8.18
2022-08-18T05:19:23.127Z,7.75
2022-08-18T05:21:51.494Z,7.35
2022-08-18T05:24:21.372Z,7.63
2022-08-18T05:26:49.030Z,7.88
2022-08-18T05:29:17.805Z,7.93
2022-08-18T05:31:46.436Z,7.50
2022-08-18T05:34:13.225Z,7.45
2022-08-18T05:36:48.855Z,7.93
2022-08-18T05:39:23.854Z,8.18
2022-08-18T05:41:53.697Z,8.50
2022-08-18T05:44:25.741Z,8.60
2022-08-18T05:46:55.577Z,8.73
2022-08-18T05:49:24.802Z,9.65
2022-08-18T05:51:59.826Z,9.25
2022-08-18T05:54:53.370Z,8.00
2022-08-18T05:57:22.452Z,8.00
2022-08-18T05:59:52.837Z,7.78
2022-08-18T06:02:38.628Z,11.50
2022-08-18T06:05:13.065Z,10.38
2022-08-18T06:07:46.996Z,14.02
2022-08-18T06:10:15.440Z,21.30
2022-08-18T06:12:52.636Z,11.15
2022-08-18T06:15:31.617Z,10.15
2022-08-18T06:18:57.657Z,9.52
2022-08-18T06:21:50.851Z,8.95
2022-08-18T06:24:29.606Z,8.13
2022-08-18T06:27:09.119Z,8.20
2022-08-18T06:30:04.499Z,10.52
2022-08-18T06:33:08.828Z,7.20
2022-08-18T06:35:38.525Z,7.95
2022-08-18T06:38:40.320Z,7.90
2022-08-18T06:41:40.486Z,13.80
2022-08-18T06:44:21.788Z,9.07
2022-08-18T06:46:55.907Z,9.13
2022-08-18T06:49:51.304Z,7.30
2022-08-18T06:52:29.224Z,8.05
2022-08-18T06:55:00.019Z,7.63
2022-08-18T06:57:35.546Z,9.23
2022-08-18T07:00:10.417Z,8.48
2022-08-18T07:02:46.091Z,8.50
2022-08-18T07:05:26.746Z,8.23
2022-08-18T07:08:30.547Z,7.40
2022-08-18T07:11:13.080Z,8.57
2022-08-18T07:13:44.382Z,7.72
2022-08-18T07:16:30.122Z,7.30
2022-08-18T07:19:17.019Z,10.50
2022-08-18T07:21:44.887Z,7.82
2022-08-18T07:24:25.236Z,7.03
2022-08-18T07:27:08.443Z,6.43
2022-08-18T07:29:39.055Z,5.75
2022-08-18T07:32:20.928Z,7.60
2022-08-18T07:34:53.727Z,6.93
2022-08-18T07:37:31.567Z,6.63
2022-08-18T07:40:11.348Z,5.93
2022-08-18T07:42:54.410Z,6.50
2022-08-18T07:45:33.652Z,6.18
2022-08-18T07:48:39.897Z,5.60
2022-08-18T07:51:18.797Z,6.30
2022-08-18T07:53:56.283Z,5.75
2022-08-18T07:56:45.687Z,6.22
2022-08-18T07:59:49.002Z,5.90
2022-08-18T08:02:15.948Z,6.53
2022-08-18T08:04:48.627Z,5.60
2022-08-18T08:07:25.378Z,5.30
2022-08-18T08:10:22.658Z,6.35
2022-08-18T08:13:08.355Z,6.38
2022-08-18T08:16:09.505Z,5.90
2022-08-18T08:18:48.658Z,7.45
2022-08-18T08:21:21.603Z,6.50
2022-08-18T08:24:12.787Z,5.70
2022-08-18T08:27:17.327Z,7.60
2022-08-18T08:30:01.503Z,6.15
2022-08-18T08:32:35.414Z,6.65
2022-08-18T08:35:50.064Z,6.32
2022-08-18T08:38:38.790Z,6.38
2022-08-18T08:41:08.053Z,5.97
2022-08-18T08:43:40.355Z,6.00
2022-08-18T08:46:11.338Z,5.85
2022-08-18T08:48:44.100Z,6.38
2022-08-18T08:51:33.766Z,6.22
2022-08-18T08:54:23.486Z,6.50
2022-08-18T08:56:55.183Z,5.60
2022-08-18T08:59:23.402Z,5.60
2022-08-18T09:02:46.572Z,5.22
2022-08-18T09:05:19.895Z,7.00
2022-08-18T09:08:17.967Z,5.13
2022-08-18T09:10:44.923Z,5.18
2022-08-18T09:13:42.110Z,5.20
2022-08-18T09:16:24.544Z,6.43
2022-08-18T09:19:08.395Z,5.07
2022-08-18T09:21:41.841Z,6.90
2022-08-18T09:24:12.907Z,6.60
2022-08-18T09:26:42.334Z,6.45
2022-08-18T09:29:44.327Z,7.05
2022-08-18T09:35:09.956Z,6.05
2022-08-18T09:38:20.717Z,5.80
2022-08-18T09:41:09.208Z,7.93
2022-08-18T09:44:18.049Z,8.50
2022-08-18T09:46:48.662Z,6.32
2022-08-18T09:49:26.772Z,7.15
2022-08-18T09:52:17.848Z,5.60
2022-08-18T09:55:18.565Z,5.95
2022-08-18T09:57:48.122Z,6.68
2022-08-18T10:00:31.194Z,6.70
2022-08-18T10:03:02.578Z,7.47
2022-08-18T10:05:31.914Z,6.63
2022-08-18T10:08:14.628Z,7.22
2022-08-18T10:11:21.653Z,5.20
2022-08-18T10:13:49.594Z,6.10
2022-08-18T10:16:57.500Z,4.70
2022-08-18T10:19:33.668Z,5.85
2022-08-18T10:22:09.416Z,5.55
2022-08-18T10:24:54.948Z,5.43
2022-08-18T10:27:36.881Z,4.95
2022-08-18T10:30:05.525Z,6.28
2022-08-18T10:32:44.360Z,6.20
2022-08-18T10:35:37.654Z,5.13
2022-08-18T10:38:36.874Z,5.05
2022-08-18T10:41:15.524Z,5.63
2022-08-18T10:43:57.553Z,5.25
2022-08-18T10:46:36.996Z,5.60
2022-08-18T10:49:12.880Z,6.47
2022-08-18T10:52:03.173Z,5.53
2022-08-18T10:54:57.053Z,5.18
2022-08-18T10:57:45.753Z,5.35
2022-08-18T11:00:19.370Z,5.72
2022-08-18T11:05:44.876Z,5.45
2022-08-18T11:08:20.025Z,5.30
2022-08-18T11:11:24.691Z,6.10
2022-08-18T11:13:56.238Z,6.65
2022-08-18T11:16:54.015Z,5.72
2022-08-18T11:19:25.149Z,5.68
2022-08-18T11:21:53.382Z,5.45
2022-08-18T11:24:28.011Z,6.97
2022-08-18T11:26:58.915Z,5.43
2022-08-18T11:29:29.075Z,5.05
2022-08-18T11:34:59.491Z,5.85
2022-08-18T11:37:49.605Z,6.75
2022-08-18T11:40:51.912Z,5.90
2022-08-18T11:43:29.710Z,5.65
2022-08-18T11:46:29.711Z,5.70
2022-08-18T11:49:01.301Z,5.03
2022-08-18T11:51:32.318Z,6.35
2022-08-18T11:54:13.067Z,4.55
2022-08-18T11:56:40.349Z,5.00
2022-08-18T12:02:21.200Z,4.47
2022-08-18T12:04:53.190Z,4.63
2022-08-18T12:07:35.848Z,9.90
2022-08-18T12:10:26.528Z,7.53
2022-08-18T12:12:57.552Z,4.40
2022-08-18T12:15:45.030Z,4.97
2022-08-18T12:18:26.124Z,4.75
2022-08-18T12:20:58.599Z,5.03
2022-08-18T12:23:26.020Z,5.88
2022-08-18T12:25:52.803Z,5.72
2022-08-18T12:28:22.811Z,9.52
2022-08-18T12:30:57.108Z,16.92
2022-08-18T12:36:13.641Z,6.72
2022-08-18T12:38:43.551Z,25.50
2022-08-18T12:41:12.109Z,7.03
2022-08-18T12:43:39.804Z,6.88
2022-08-18T12:46:12.037Z,4.72
2022-08-18T12:48:39.723Z,5.38
2022-08-18T12:51:08.310Z,5.20
2022-08-18T12:53:49.255Z,6.45
2022-08-18T12:56:31.004Z,5.72
2022-08-18T12:59:05.127Z,4.60
2022-08-18T13:01:34.582Z,5.18
2022-08-18T13:04:11.673Z,5.32
2022-08-18T13:06:59.060Z,4.93
2022-08-18T13:09:35.575Z,4.88
2022-08-18T13:12:16.499Z,4.57
2022-08-18T13:14:44.488Z,5.43
2022-08-18T13:17:30.071Z,5.60
2022-08-18T13:20:11.347Z,4.97
2022-08-18T13:22:40.962Z,4.63
2022-08-18T13:25:11.474Z,5.57
2022-08-18T13:27:43.633Z,4.80
2022-08-18T13:30:30.957Z,5.22
2022-08-18T13:33:05.284Z,5.25
2022-08-18T13:35:44.381Z,5.20
2022-08-18T13:38:25.850Z,4.75
2022-08-18T13:40:57.633Z,5.32
2022-08-18T13:43:35.522Z,6.53
2022-08-18T13:46:03.921Z,6.50
2022-08-18T13:48:31.966Z,8.15
2022-08-18T13:51:01.387Z,8.18
2022-08-18T13:53:31.497Z,7.63
2022-08-18T13:55:59.277Z,7.63
2022-08-18T13:58:27.812Z,8.68
2022-08-18T14:01:37.353Z,9.85
2022-08-18T14:03:51.608Z,10.52
2022-08-18T14:06:23.846Z,10.35
2022-08-18T14:08:52.711Z,10.68
2022-08-18T14:11:32.862Z,9.57
2022-08-18T14:14:02.243Z,9.50
2022-08-18T14:16:29.461Z,8.82
2022-08-18T14:19:17.652Z,9.77
2022-08-18T14:22:06.562Z,10.07
2022-08-18T14:24:58.380Z,9.38
2022-08-18T14:27:34.994Z,13.50
2022-08-18T14:30:11.964Z,9.70
2022-08-18T14:32:48.963Z,9.52
2022-08-18T14:36:03.656Z,9.88
2022-08-18T14:38:06.892Z,10.00
2022-08-18T14:40:38.863Z,10.32
2022-08-18T14:43:12.067Z,10.23
2022-08-18T14:45:48.665Z,10.18
2022-08-18T14:48:22.222Z,9.75
2022-08-18T14:50:54.445Z,10.45
2022-08-18T14:53:24.746Z,11.13
2022-08-18T14:55:53.575Z,9.55
2022-08-18T14:58:28.650Z,10.60
2022-08-18T15:00:57.774Z,10.13
2022-08-18T15:03:28.309Z,10.82
2022-08-18T15:06:00.439Z,10.10
2022-08-18T15:08:27.962Z,8.95
2022-08-18T15:10:55.798Z,10.75
2022-08-18T15:13:26.469Z,10.43
2022-08-18T15:15:55.812Z,11.15
2022-08-18T15:18:29.450Z,9.63
2022-08-18T15:21:19.648Z,12.27
2022-08-18T15:24:20.713Z,10.00
2022-08-18T15:26:51.753Z,13.50
2022-08-18T15:29:28.058Z,12.13
2022-08-18T15:32:02.174Z,12.80
2022-08-18T15:34:47.023Z,11.32
2022-08-18T15:37:19.632Z,13.48
2022-08-18T15:39:51.943Z,14.63
2022-08-18T15:42:23.512Z,13.02
2022-08-18T15:44:50.436Z,13.20
2022-08-18T15:47:21.074Z,14.23
2022-08-18T15:49:48.463Z,13.48
2022-08-18T15:52:17.709Z,13.00
2022-08-18T15:54:50.380Z,12.30
2022-08-18T15:57:39.248Z,13.07
2022-08-18T16:00:06.126Z,11.93
2022-08-18T16:02:39.668Z,12.48
2022-08-18T16:05:10.182Z,13.50
2022-08-18T16:07:41.242Z,12.27
2022-08-18T16:10:12.786Z,12.30
2022-08-18T16:12:45.829Z,13.25
2022-08-18T16:15:15.427Z,11.65
2022-08-18T16:17:50.296Z,16.13
2022-08-18T16:20:18.812Z,13.23
2022-08-18T16:22:46.951Z,13.50
2022-08-18T16:25:16.373Z,13.02
2022-08-18T16:27:44.245Z,12.88
2022-08-18T16:30:14.524Z,12.20
2022-08-18T16:32:41.520Z,12.75
2022-08-18T16:35:08.869Z,13.15
2022-08-18T16:37:35.699Z,13.65
2022-08-18T16:40:03.749Z,13.73
2022-08-18T16:42:33.337Z,13.15
2022-08-18T16:45:01.445Z,14.60
2022-08-18T16:47:28.414Z,13.77
2022-08-18T16:49:58.632Z,14.45
2022-08-18T16:52:27.095Z,14.25
2022-08-18T16:54:57.698Z,14.38
2022-08-18T16:57:55.034Z,14.30
2022-08-18T17:00:42.192Z,13.57
2022-08-18T17:03:28.470Z,14.00
2022-08-18T17:06:07.504Z,13.20
2022-08-18T17:08:35.413Z,13.10
2022-08-18T17:11:03.726Z,13.52
2022-08-18T17:13:31.385Z,14.27
2022-08-18T17:15:58.568Z,14.23
2022-08-18T17:18:25.435Z,15.02
2022-08-18T17:20:52.739Z,14.88
2022-08-18T17:23:22.492Z,15.05
2022-08-18T17:25:50.101Z,15.65
2022-08-18T17:28:23.063Z,16.50
2022-08-18T17:30:53.272Z,15.85
2022-08-18T17:33:26.187Z,17.63
2022-08-18T17:35:54.103Z,18.77
2022-08-18T17:38:23.516Z,18.80
2022-08-18T17:40:54.381Z,19.48
2022-08-18T17:46:26.553Z,20.77
2022-08-18T17:49:02.535Z,20.45
2022-08-18T17:51:49.849Z,20.38
2022-08-18T17:54:41.997Z,20.27
2022-08-18T17:57:12.527Z,20.05
2022-08-18T17:59:52.127Z,20.52
2022-08-18T18:02:29.137Z,21.90
2022-08-18T18:05:02.786Z,23.58
2022-08-18T18:07:31.707Z,25.85
2022-08-18T18:10:17.332Z,27.10
2022-08-18T18:12:46.730Z,26.27
2022-08-18T18:15:14.175Z,27.50
2022-08-18T18:17:43.165Z,26.67
2022-08-18T18:20:41.743Z,29.20
2022-08-18T18:23:18.118Z,33.00
2022-08-18T18:25:45.090Z,31.63
2022-08-18T18:28:25.568Z,35.38
2022-08-18T18:30:52.322Z,34.55
2022-08-18T18:33:19.169Z,37.15
2022-08-18T18:35:57.790Z,35.75
2022-08-18T18:38:24.581Z,38.22
2022-08-18T18:41:20.429Z,35.90
2022-08-18T18:43:51.068Z,32.55
2022-08-18T18:46:34.685Z,31.25
2022-08-18T18:49:10.564Z,31.25
2022-08-18T18:52:00.414Z,34.65
2022-08-18T18:54:39.631Z,37.33
2022-08-18T18:57:34.771Z,42.63
2022-08-18T19:00:14.375Z,53.05
2022-08-18T19:02:58.675Z,46.08
2022-08-18T19:05:47.047Z,46.60
2022-08-18T19:08:26.443Z,47.95
2022-08-18T19:11:16.372Z,51.38
2022-08-18T19:13:55.109Z,46.92
2022-08-18T19:16:33.632Z,54.28
2022-08-18T19:19:36.923Z,54.55
2022-08-18T19:22:06.648Z,57.65
2022-08-18T19:24:46.863Z,50.10
2022-08-18T19:27:25.264Z,53.28
2022-08-18T19:30:00.411Z,57.80
2022-08-18T19:32:35.076Z,55.13
2022-08-18T19:35:04.544Z,60.78
2022-08-18T19:37:52.554Z,56.85
2022-08-18T19:40:28.170Z,58.50
2022-08-18T19:43:00.389Z,59.17
2022-08-18T19:45:40.869Z,56.10
2022-08-18T19:48:28.509Z,59.45
2022-08-18T19:51:13.234Z,54.83
2022-08-18T19:54:00.409Z,58.90
2022-08-18T19:56:41.927Z,62.03
2022-08-18T19:59:27.066Z,53.08
2022-08-18T20:02:17.100Z,58.05
2022-08-18T20:05:09.088Z,51.38
2022-08-18T20:08:00.961Z,60.38
2022-08-18T20:10:31.033Z,57.55
2022-08-18T20:13:13.410Z,54.95
2022-08-18T20:16:02.792Z,58.10
2022-08-18T20:18:33.661Z,62.00
2022-08-18T20:21:15.674Z,57.33
2022-08-18T20:24:15.277Z,54.47
2022-08-18T20:26:46.174Z,53.47
2022-08-18T20:29:39.191Z,50.10
2022-08-18T20:32:18.191Z,53.00
2022-08-18T20:34:50.549Z,51.95
2022-08-18T20:37:25.738Z,46.90
2022-08-18T20:39:55.310Z,47.33
2022-08-18T20:42:22.463Z,45.00
2022-08-18T20:44:52.536Z,45.95
2022-08-18T20:47:31.438Z,48.80
2022-08-18T20:50:31.659Z,49.97
2022-08-18T20:53:20.092Z,51.78
2022-08-18T20:55:53.243Z,51.20
2022-08-18T20:58:26.245Z,51.25
2022-08-18T21:01:01.868Z,44.67
2022-08-18T21:03:44.757Z,46.80
2022-08-18T21:06:15.251Z,51.28
2022-08-18T21:09:01.069Z,47.20
2022-08-18T21:11:36.911Z,43.85
2022-08-18T21:14:04.956Z,45.58
2022-08-18T21:16:58.958Z,44.33
2022-08-18T21:19:28.782Z,41.22
2022-08-18T21:22:01.724Z,44.33
2022-08-18T21:24:37.228Z,39.15
2022-08-18T21:27:11.212Z,39.58
2022-08-18T21:29:47.088Z,38.97
2022-08-18T21:32:30.259Z,41.28
2022-08-18T21:34:58.488Z,39.58
2022-08-18T21:37:25.520Z,40.72
2022-08-18T21:39:59.406Z,44.88
2022-08-18T21:42:45.248Z,42.15
2022-08-18T21:45:22.418Z,43.15
2022-08-18T21:48:01.930Z,47.67
2022-08-18T21:50:34.542Z,48.83
2022-08-18T21:53:28.182Z,42.63
2022-08-18T21:55:56.462Z,42.67
2022-08-18T21:58:45.115Z,42.25
2022-08-18T22:01:31.596Z,42.97
2022-08-18T22:04:18.457Z,42.80
2022-08-18T22:06:58.896Z,40.00
2022-08-18T22:09:51.295Z,39.67
2022-08-18T22:12:42.764Z,41.88
2022-08-18T22:15:14.362Z,44.53
2022-08-18T22:17:57.815Z,43.95
2022-08-18T22:20:39.335Z,47.35
2022-08-18T22:23:30.510Z,45.85
2022-08-18T22:26:09.006Z,41.50
2022-08-18T22:28:53.457Z,45.40
2022-08-18T22:31:22.978Z,45.42
2022-08-18T22:33:50.958Z,46.33
2022-08-18T22:36:28.214Z,42.13
2022-08-18T22:38:55.986Z,44.50
2022-08-18T22:41:23.021Z,41.50
2022-08-18T22:43:54.773Z,39.63
2022-08-18T22:46:24.830Z,40.33
2022-08-18T22:48:52.735Z,40.50
2022-08-18T22:51:22.852Z,40.75
2022-08-18T22:53:50.048Z,39.55
2022-08-18T22:56:34.009Z,37.33
2022-08-18T22:59:15.499Z,38.30
2022-08-18T23:01:45.833Z,36.75
2022-08-18T23:04:13.133Z,36.08
2022-08-18T23:06:39.923Z,35.20
2022-08-18T23:09:07.275Z,35.78
2022-08-18T23:11:34.648Z,37.50
2022-08-18T23:14:02.270Z,38.63
2022-08-18T23:16:31.329Z,39.25
2022-08-18T23:19:03.427Z,37.40
2022-08-18T23:21:34.611Z,40.60
2022-08-18T23:24:07.550Z,40.67
2022-08-18T23:26:34.810Z,36.83
2022-08-18T23:29:03.333Z,38.75
2022-08-18T23:31:30.301Z,37.83
2022-08-18T23:34:00.790Z,40.63
2022-08-18T23:36:29.348Z,38.08
2022-08-18T23:38:56.522Z,38.88
2022-08-18T23:41:23.563Z,34.80
2022-08-18T23:43:51.021Z,35.90
2022-08-18T23:46:22.590Z,37.15
2022-08-18T23:48:51.586Z,34.42
2022-08-18T23:51:32.895Z,35.78
2022-08-18T23:54:03.214Z,35.53
2022-08-18T23:56:31.078Z,35.45
2022-08-18T23:58:59.026Z,35.92
